sensor_id;sensor_type;location;lat;lon;timestamp;P1;durP1;ratioP1;P2;durP2;ratioP2
5085;SDS011;4715;51.660;7.082;2023-08-06T00:01:51;4.73;;;3.47;;
5085;SDS011;4715;51.660;7.082;2023-08-06T00:04:12;3.63;;;3.33;;
5085;SDS011;4715;51.660;7.082;2023-08-06T00:06:34;3.20;;;2.90;;
5085;SDS011;4715;51.660;7.082;2023-08-06T00:08:56;4.10;;;3.70;;
5085;SDS011;4715;51.660;7.082;2023-08-06T00:11:18;6.03;;;3.73;;
5085;SDS011;4715;51.660;7.082;2023-08-06T00:13:39;3.50;;;3.30;;
5085;SDS011;4715;51.660;7.082;2023-08-06T00:16:09;3.47;;;3.17;;
5085;SDS011;4715;51.660;7.082;2023-08-06T00:18:31;3.40;;;3.20;;
5085;SDS011;4715;51.660;7.082;2023-08-06T00:20:53;3.40;;;3.10;;
5085;SDS011;4715;51.660;7.082;2023-08-06T00:23:15;2.60;;;2.50;;
5085;SDS011;4715;51.660;7.082;2023-08-06T00:25:37;3.10;;;2.90;;
5085;SDS011;4715;51.660;7.082;2023-08-06T00:27:59;2.93;;;2.60;;
5085;SDS011;4715;51.660;7.082;2023-08-06T00:30:21;2.33;;;2.23;;
5085;SDS011;4715;51.660;7.082;2023-08-06T00:32:44;2.13;;;2.03;;
5085;SDS011;4715;51.660;7.082;2023-08-06T00:35:06;2.83;;;2.63;;
5085;SDS011;4715;51.660;7.082;2023-08-06T00:37:28;2.70;;;2.60;;
5085;SDS011;4715;51.660;7.082;2023-08-06T00:39:50;2.40;;;2.30;;
5085;SDS011;4715;51.660;7.082;2023-08-06T00:42:12;2.20;;;2.10;;
5085;SDS011;4715;51.660;7.082;2023-08-06T00:44:34;2.97;;;2.77;;
5085;SDS011;4715;51.660;7.082;2023-08-06T00:46:56;2.40;;;2.20;;
5085;SDS011;4715;51.660;7.082;2023-08-06T00:49:19;2.67;;;2.50;;
5085;SDS011;4715;51.660;7.082;2023-08-06T00:51:41;2.07;;;1.97;;
5085;SDS011;4715;51.660;7.082;2023-08-06T00:54:04;2.50;;;2.40;;
5085;SDS011;4715;51.660;7.082;2023-08-06T00:56:26;2.67;;;2.47;;
5085;SDS011;4715;51.660;7.082;2023-08-06T00:58:48;2.90;;;2.70;;
5085;SDS011;4715;51.660;7.082;2023-08-06T01:01:10;2.30;;;2.20;;
5085;SDS011;4715;51.660;7.082;2023-08-06T01:03:32;2.60;;;2.50;;
5085;SDS011;4715;51.660;7.082;2023-08-06T01:05:55;2.10;;;2.00;;
5085;SDS011;4715;51.660;7.082;2023-08-06T01:08:19;2.37;;;2.27;;
5085;SDS011;4715;51.660;7.082;2023-08-06T01:10:55;1.73;;;1.63;;
5085;SDS011;4715;51.660;7.082;2023-08-06T01:13:29;2.30;;;2.20;;
5085;SDS011;4715;51.660;7.082;2023-08-06T01:15:58;2.23;;;2.13;;
5085;SDS011;4715;51.660;7.082;2023-08-06T01:18:21;2.53;;;2.33;;
5085;SDS011;4715;51.660;7.082;2023-08-06T01:20:44;2.97;;;2.67;;
5085;SDS011;4715;51.660;7.082;2023-08-06T01:23:06;2.73;;;2.53;;
5085;SDS011;4715;51.660;7.082;2023-08-06T01:25:29;2.07;;;1.97;;
5085;SDS011;4715;51.660;7.082;2023-08-06T01:27:54;2.00;;;1.90;;
5085;SDS011;4715;51.660;7.082;2023-08-06T01:30:20;2.33;;;2.23;;
5085;SDS011;4715;51.660;7.082;2023-08-06T01:32:49;2.10;;;2.00;;
5085;SDS011;4715;51.660;7.082;2023-08-06T01:35:15;2.87;;;2.70;;
5085;SDS011;4715;51.660;7.082;2023-08-06T01:37:39;2.73;;;2.63;;
5085;SDS011;4715;51.660;7.082;2023-08-06T01:40:05;2.83;;;2.73;;
5085;SDS011;4715;51.660;7.082;2023-08-06T01:42:28;2.50;;;2.30;;
5085;SDS011;4715;51.660;7.082;2023-08-06T01:44:49;2.93;;;2.80;;
5085;SDS011;4715;51.660;7.082;2023-08-06T01:47:11;2.87;;;2.67;;
5085;SDS011;4715;51.660;7.082;2023-08-06T01:49:33;2.60;;;2.50;;
5085;SDS011;4715;51.660;7.082;2023-08-06T01:51:55;2.30;;;2.20;;
5085;SDS011;4715;51.660;7.082;2023-08-06T01:54:18;2.77;;;2.57;;
5085;SDS011;4715;51.660;7.082;2023-08-06T01:56:40;2.17;;;2.07;;
5085;SDS011;4715;51.660;7.082;2023-08-06T01:59:01;2.67;;;2.57;;
5085;SDS011;4715;51.660;7.082;2023-08-06T02:01:23;2.30;;;2.20;;
5085;SDS011;4715;51.660;7.082;2023-08-06T02:03:45;2.47;;;2.37;;
5085;SDS011;4715;51.660;7.082;2023-08-06T02:06:07;2.27;;;2.17;;
5085;SDS011;4715;51.660;7.082;2023-08-06T02:08:28;2.67;;;2.57;;
5085;SDS011;4715;51.660;7.082;2023-08-06T02:10:51;2.80;;;2.60;;
5085;SDS011;4715;51.660;7.082;2023-08-06T02:13:13;2.27;;;2.17;;
5085;SDS011;4715;51.660;7.082;2023-08-06T02:15:35;2.50;;;2.40;;
5085;SDS011;4715;51.660;7.082;2023-08-06T02:17:57;2.33;;;2.23;;
5085;SDS011;4715;51.660;7.082;2023-08-06T02:20:19;2.13;;;2.03;;
5085;SDS011;4715;51.660;7.082;2023-08-06T02:22:40;2.20;;;2.10;;
5085;SDS011;4715;51.660;7.082;2023-08-06T02:25:02;2.57;;;2.37;;
5085;SDS011;4715;51.660;7.082;2023-08-06T02:27:26;1.83;;;1.73;;
5085;SDS011;4715;51.660;7.082;2023-08-06T02:29:48;2.10;;;2.00;;
5085;SDS011;4715;51.660;7.082;2023-08-06T02:32:09;2.23;;;2.13;;
5085;SDS011;4715;51.660;7.082;2023-08-06T02:34:31;2.67;;;2.50;;
5085;SDS011;4715;51.660;7.082;2023-08-06T02:36:53;2.53;;;2.33;;
5085;SDS011;4715;51.660;7.082;2023-08-06T02:39:15;2.23;;;2.13;;
5085;SDS011;4715;51.660;7.082;2023-08-06T02:41:36;2.50;;;2.30;;
5085;SDS011;4715;51.660;7.082;2023-08-06T02:43:59;2.20;;;2.00;;
5085;SDS011;4715;51.660;7.082;2023-08-06T02:46:21;2.57;;;2.47;;
5085;SDS011;4715;51.660;7.082;2023-08-06T02:48:43;2.30;;;2.20;;
5085;SDS011;4715;51.660;7.082;2023-08-06T02:51:05;2.23;;;2.13;;
5085;SDS011;4715;51.660;7.082;2023-08-06T02:53:26;2.20;;;2.10;;
5085;SDS011;4715;51.660;7.082;2023-08-06T02:55:48;2.23;;;2.13;;
5085;SDS011;4715;51.660;7.082;2023-08-06T02:58:10;2.90;;;2.00;;
5085;SDS011;4715;51.660;7.082;2023-08-06T03:00:33;2.70;;;2.50;;
5085;SDS011;4715;51.660;7.082;2023-08-06T03:02:55;1.70;;;1.60;;
5085;SDS011;4715;51.660;7.082;2023-08-06T03:05:17;2.40;;;1.70;;
5085;SDS011;4715;51.660;7.082;2023-08-06T03:07:39;2.00;;;1.90;;
5085;SDS011;4715;51.660;7.082;2023-08-06T03:10:00;1.80;;;1.70;;
5085;SDS011;4715;51.660;7.082;2023-08-06T03:12:22;2.03;;;1.93;;
5085;SDS011;4715;51.660;7.082;2023-08-06T03:14:44;1.80;;;1.70;;
5085;SDS011;4715;51.660;7.082;2023-08-06T03:17:07;1.87;;;1.77;;
5085;SDS011;4715;51.660;7.082;2023-08-06T03:19:29;1.93;;;1.83;;
5085;SDS011;4715;51.660;7.082;2023-08-06T03:21:51;2.13;;;1.77;;
5085;SDS011;4715;51.660;7.082;2023-08-06T03:24:13;1.70;;;1.60;;
5085;SDS011;4715;51.660;7.082;2023-08-06T03:26:35;1.60;;;1.50;;
5085;SDS011;4715;51.660;7.082;2023-08-06T03:28:56;1.90;;;1.80;;
5085;SDS011;4715;51.660;7.082;2023-08-06T03:31:18;1.70;;;1.60;;
5085;SDS011;4715;51.660;7.082;2023-08-06T03:33:41;2.00;;;1.83;;
5085;SDS011;4715;51.660;7.082;2023-08-06T03:36:03;1.60;;;1.50;;
5085;SDS011;4715;51.660;7.082;2023-08-06T03:38:25;2.63;;;2.30;;
5085;SDS011;4715;51.660;7.082;2023-08-06T03:40:47;1.60;;;1.50;;
5085;SDS011;4715;51.660;7.082;2023-08-06T03:43:09;1.77;;;1.67;;
5085;SDS011;4715;51.660;7.082;2023-08-06T03:45:31;1.90;;;1.80;;
5085;SDS011;4715;51.660;7.082;2023-08-06T03:47:53;1.93;;;1.83;;
5085;SDS011;4715;51.660;7.082;2023-08-06T03:50:16;1.57;;;1.47;;
5085;SDS011;4715;51.660;7.082;2023-08-06T03:52:37;1.90;;;1.80;;
5085;SDS011;4715;51.660;7.082;2023-08-06T03:54:59;2.00;;;1.40;;
5085;SDS011;4715;51.660;7.082;2023-08-06T03:57:21;1.80;;;1.70;;
5085;SDS011;4715;51.660;7.082;2023-08-06T03:59:43;2.43;;;1.70;;
5085;SDS011;4715;51.660;7.082;2023-08-06T04:02:05;1.67;;;1.57;;
5085;SDS011;4715;51.660;7.082;2023-08-06T04:04:26;1.60;;;1.50;;
5085;SDS011;4715;51.660;7.082;2023-08-06T04:06:50;1.70;;;1.60;;
5085;SDS011;4715;51.660;7.082;2023-08-06T04:09:11;2.10;;;2.00;;
5085;SDS011;4715;51.660;7.082;2023-08-06T04:11:33;2.10;;;1.43;;
5085;SDS011;4715;51.660;7.082;2023-08-06T04:13:55;1.90;;;1.80;;
5085;SDS011;4715;51.660;7.082;2023-08-06T04:16:17;1.50;;;1.40;;
5085;SDS011;4715;51.660;7.082;2023-08-06T04:18:39;1.93;;;1.83;;
5085;SDS011;4715;51.660;7.082;2023-08-06T04:21:02;1.90;;;1.80;;
5085;SDS011;4715;51.660;7.082;2023-08-06T04:23:25;1.77;;;1.67;;
5085;SDS011;4715;51.660;7.082;2023-08-06T04:25:47;1.80;;;1.70;;
5085;SDS011;4715;51.660;7.082;2023-08-06T04:28:09;1.57;;;1.47;;
5085;SDS011;4715;51.660;7.082;2023-08-06T04:30:30;1.70;;;1.60;;
5085;SDS011;4715;51.660;7.082;2023-08-06T04:32:52;1.60;;;1.50;;
5085;SDS011;4715;51.660;7.082;2023-08-06T04:35:14;1.70;;;1.60;;
5085;SDS011;4715;51.660;7.082;2023-08-06T04:37:36;1.60;;;1.50;;
5085;SDS011;4715;51.660;7.082;2023-08-06T04:39:59;1.93;;;1.83;;
5085;SDS011;4715;51.660;7.082;2023-08-06T04:42:21;1.70;;;1.60;;
5085;SDS011;4715;51.660;7.082;2023-08-06T04:44:42;1.30;;;1.30;;
5085;SDS011;4715;51.660;7.082;2023-08-06T04:47:04;1.70;;;1.60;;
5085;SDS011;4715;51.660;7.082;2023-08-06T04:49:26;1.50;;;1.40;;
5085;SDS011;4715;51.660;7.082;2023-08-06T04:51:48;1.50;;;1.40;;
5085;SDS011;4715;51.660;7.082;2023-08-06T04:54:10;1.60;;;1.50;;
5085;SDS011;4715;51.660;7.082;2023-08-06T04:56:33;1.70;;;1.60;;
5085;SDS011;4715;51.660;7.082;2023-08-06T04:58:55;1.80;;;1.70;;
5085;SDS011;4715;51.660;7.082;2023-08-06T05:01:16;1.70;;;1.60;;
5085;SDS011;4715;51.660;7.082;2023-08-06T05:03:38;1.80;;;1.70;;
5085;SDS011;4715;51.660;7.082;2023-08-06T05:06:00;1.57;;;1.47;;
5085;SDS011;4715;51.660;7.082;2023-08-06T05:08:22;1.70;;;1.60;;
5085;SDS011;4715;51.660;7.082;2023-08-06T05:10:44;1.70;;;1.60;;
5085;SDS011;4715;51.660;7.082;2023-08-06T05:13:07;1.57;;;1.47;;
5085;SDS011;4715;51.660;7.082;2023-08-06T05:15:29;1.80;;;1.70;;
5085;SDS011;4715;51.660;7.082;2023-08-06T05:17:51;1.60;;;1.50;;
5085;SDS011;4715;51.660;7.082;2023-08-06T05:20:13;1.80;;;1.70;;
5085;SDS011;4715;51.660;7.082;2023-08-06T05:22:34;1.63;;;1.53;;
5085;SDS011;4715;51.660;7.082;2023-08-06T05:24:56;1.70;;;1.60;;
5085;SDS011;4715;51.660;7.082;2023-08-06T05:27:18;1.20;;;1.20;;
5085;SDS011;4715;51.660;7.082;2023-08-06T05:29:40;1.97;;;1.87;;
5085;SDS011;4715;51.660;7.082;2023-08-06T05:32:02;1.60;;;1.50;;
5085;SDS011;4715;51.660;7.082;2023-08-06T05:34:24;1.80;;;1.70;;
5085;SDS011;4715;51.660;7.082;2023-08-06T05:36:46;1.80;;;1.70;;
5085;SDS011;4715;51.660;7.082;2023-08-06T05:39:08;1.77;;;1.67;;
5085;SDS011;4715;51.660;7.082;2023-08-06T05:41:30;1.60;;;1.50;;
5085;SDS011;4715;51.660;7.082;2023-08-06T05:43:51;1.60;;;1.50;;
5085;SDS011;4715;51.660;7.082;2023-08-06T05:46:15;1.67;;;1.57;;
5085;SDS011;4715;51.660;7.082;2023-08-06T05:48:36;1.73;;;1.63;;
5085;SDS011;4715;51.660;7.082;2023-08-06T05:50:58;1.97;;;1.87;;
5085;SDS011;4715;51.660;7.082;2023-08-06T05:53:20;1.80;;;1.70;;
5085;SDS011;4715;51.660;7.082;2023-08-06T05:55:42;1.70;;;1.60;;
5085;SDS011;4715;51.660;7.082;2023-08-06T05:58:05;1.57;;;1.47;;
5085;SDS011;4715;51.660;7.082;2023-08-06T06:00:27;1.67;;;1.57;;
5085;SDS011;4715;51.660;7.082;2023-08-06T06:02:51;1.60;;;1.50;;
5085;SDS011;4715;51.660;7.082;2023-08-06T06:05:13;1.53;;;1.43;;
5085;SDS011;4715;51.660;7.082;2023-08-06T06:07:35;1.80;;;1.70;;
5085;SDS011;4715;51.660;7.082;2023-08-06T06:09:56;1.90;;;1.80;;
5085;SDS011;4715;51.660;7.082;2023-08-06T06:12:18;1.63;;;1.53;;
5085;SDS011;4715;51.660;7.082;2023-08-06T06:14:42;1.60;;;1.50;;
5085;SDS011;4715;51.660;7.082;2023-08-06T06:17:04;1.87;;;1.47;;
5085;SDS011;4715;51.660;7.082;2023-08-06T06:19:27;1.80;;;1.70;;
5085;SDS011;4715;51.660;7.082;2023-08-06T06:21:49;1.33;;;1.33;;
5085;SDS011;4715;51.660;7.082;2023-08-06T06:24:11;1.87;;;1.77;;
5085;SDS011;4715;51.660;7.082;2023-08-06T06:26:33;1.93;;;1.70;;
5085;SDS011;4715;51.660;7.082;2023-08-06T06:28:54;1.97;;;1.80;;
5085;SDS011;4715;51.660;7.082;2023-08-06T06:31:16;1.70;;;1.60;;
5085;SDS011;4715;51.660;7.082;2023-08-06T06:33:38;1.70;;;1.60;;
5085;SDS011;4715;51.660;7.082;2023-08-06T06:36:01;2.00;;;1.90;;
5085;SDS011;4715;51.660;7.082;2023-08-06T06:38:24;1.77;;;1.67;;
5085;SDS011;4715;51.660;7.082;2023-08-06T06:40:53;1.70;;;1.60;;
5085;SDS011;4715;51.660;7.082;2023-08-06T06:43:15;1.70;;;1.60;;
5085;SDS011;4715;51.660;7.082;2023-08-06T06:45:37;1.67;;;1.57;;
5085;SDS011;4715;51.660;7.082;2023-08-06T06:47:58;1.90;;;1.80;;
5085;SDS011;4715;51.660;7.082;2023-08-06T06:50:20;1.47;;;1.37;;
5085;SDS011;4715;51.660;7.082;2023-08-06T06:55:17;1.57;;;1.47;;
5085;SDS011;4715;51.660;7.082;2023-08-06T06:57:39;1.30;;;1.30;;
5085;SDS011;4715;51.660;7.082;2023-08-06T07:00:01;1.77;;;1.67;;
5085;SDS011;4715;51.660;7.082;2023-08-06T07:02:23;1.97;;;1.87;;
5085;SDS011;4715;51.660;7.082;2023-08-06T07:04:45;1.87;;;1.77;;
5085;SDS011;4715;51.660;7.082;2023-08-06T07:07:07;1.60;;;1.50;;
5085;SDS011;4715;51.660;7.082;2023-08-06T07:09:30;2.23;;;2.13;;
5085;SDS011;4715;51.660;7.082;2023-08-06T07:11:52;1.73;;;1.63;;
5085;SDS011;4715;51.660;7.082;2023-08-06T07:14:14;1.90;;;1.80;;
5085;SDS011;4715;51.660;7.082;2023-08-06T07:16:36;1.63;;;1.53;;
5085;SDS011;4715;51.660;7.082;2023-08-06T07:19:08;2.03;;;1.93;;
5085;SDS011;4715;51.660;7.082;2023-08-06T07:21:30;1.80;;;1.70;;
5085;SDS011;4715;51.660;7.082;2023-08-06T07:23:52;1.77;;;1.67;;
5085;SDS011;4715;51.660;7.082;2023-08-06T07:26:17;1.80;;;1.70;;
5085;SDS011;4715;51.660;7.082;2023-08-06T07:28:39;4.43;;;1.63;;
5085;SDS011;4715;51.660;7.082;2023-08-06T07:31:08;1.63;;;1.53;;
5085;SDS011;4715;51.660;7.082;2023-08-06T07:33:30;1.90;;;1.80;;
5085;SDS011;4715;51.660;7.082;2023-08-06T07:35:51;1.57;;;1.47;;
5085;SDS011;4715;51.660;7.082;2023-08-06T07:38:13;1.63;;;1.53;;
5085;SDS011;4715;51.660;7.082;2023-08-06T07:40:35;1.70;;;1.60;;
5085;SDS011;4715;51.660;7.082;2023-08-06T07:42:59;1.80;;;1.70;;
5085;SDS011;4715;51.660;7.082;2023-08-06T07:45:21;2.10;;;2.00;;
5085;SDS011;4715;51.660;7.082;2023-08-06T07:47:43;2.07;;;1.87;;
5085;SDS011;4715;51.660;7.082;2023-08-06T07:50:05;1.97;;;1.87;;
5085;SDS011;4715;51.660;7.082;2023-08-06T07:52:27;6.40;;;1.90;;
5085;SDS011;4715;51.660;7.082;2023-08-06T07:54:49;2.33;;;2.13;;
5085;SDS011;4715;51.660;7.082;2023-08-06T07:57:11;1.87;;;1.70;;
5085;SDS011;4715;51.660;7.082;2023-08-06T07:59:35;1.93;;;1.83;;
5085;SDS011;4715;51.660;7.082;2023-08-06T08:01:57;2.63;;;2.43;;
5085;SDS011;4715;51.660;7.082;2023-08-06T08:04:19;2.10;;;2.00;;
5085;SDS011;4715;51.660;7.082;2023-08-06T08:06:41;1.83;;;1.73;;
5085;SDS011;4715;51.660;7.082;2023-08-06T08:09:03;1.83;;;1.73;;
5085;SDS011;4715;51.660;7.082;2023-08-06T08:11:25;2.00;;;1.90;;
5085;SDS011;4715;51.660;7.082;2023-08-06T08:13:47;1.87;;;1.77;;
5085;SDS011;4715;51.660;7.082;2023-08-06T08:16:10;2.30;;;2.20;;
5085;SDS011;4715;51.660;7.082;2023-08-06T08:18:32;1.93;;;1.80;;
5085;SDS011;4715;51.660;7.082;2023-08-06T08:20:57;1.90;;;1.80;;
5085;SDS011;4715;51.660;7.082;2023-08-06T08:23:19;1.80;;;1.70;;
5085;SDS011;4715;51.660;7.082;2023-08-06T08:25:50;2.00;;;1.90;;
5085;SDS011;4715;51.660;7.082;2023-08-06T08:28:18;2.10;;;2.00;;
5085;SDS011;4715;51.660;7.082;2023-08-06T08:30:40;2.60;;;2.30;;
5085;SDS011;4715;51.660;7.082;2023-08-06T08:33:03;2.37;;;2.27;;
5085;SDS011;4715;51.660;7.082;2023-08-06T08:35:31;1.80;;;1.70;;
5085;SDS011;4715;51.660;7.082;2023-08-06T08:37:53;2.00;;;1.90;;
5085;SDS011;4715;51.660;7.082;2023-08-06T08:40:15;2.60;;;2.40;;
5085;SDS011;4715;51.660;7.082;2023-08-06T08:42:37;1.77;;;1.67;;
5085;SDS011;4715;51.660;7.082;2023-08-06T08:44:59;2.17;;;2.03;;
5085;SDS011;4715;51.660;7.082;2023-08-06T08:47:21;2.70;;;2.50;;
5085;SDS011;4715;51.660;7.082;2023-08-06T08:49:45;2.30;;;2.10;;
5085;SDS011;4715;51.660;7.082;2023-08-06T08:52:08;2.50;;;2.40;;
5085;SDS011;4715;51.660;7.082;2023-08-06T08:54:32;2.40;;;2.10;;
5085;SDS011;4715;51.660;7.082;2023-08-06T08:56:55;2.10;;;2.00;;
5085;SDS011;4715;51.660;7.082;2023-08-06T08:59:17;2.27;;;2.17;;
5085;SDS011;4715;51.660;7.082;2023-08-06T09:01:39;2.30;;;2.20;;
5085;SDS011;4715;51.660;7.082;2023-08-06T09:04:02;2.10;;;2.00;;
5085;SDS011;4715;51.660;7.082;2023-08-06T09:06:27;1.80;;;1.70;;
5085;SDS011;4715;51.660;7.082;2023-08-06T09:08:54;2.10;;;1.90;;
5085;SDS011;4715;51.660;7.082;2023-08-06T09:11:30;2.23;;;2.13;;
5085;SDS011;4715;51.660;7.082;2023-08-06T09:13:59;1.93;;;1.83;;
5085;SDS011;4715;51.660;7.082;2023-08-06T09:16:22;2.03;;;1.93;;
5085;SDS011;4715;51.660;7.082;2023-08-06T09:18:51;2.03;;;1.93;;
5085;SDS011;4715;51.660;7.082;2023-08-06T09:21:13;2.10;;;2.00;;
5085;SDS011;4715;51.660;7.082;2023-08-06T09:23:37;2.27;;;2.17;;
5085;SDS011;4715;51.660;7.082;2023-08-06T09:25:59;2.33;;;2.23;;
5085;SDS011;4715;51.660;7.082;2023-08-06T09:28:22;2.03;;;1.93;;
5085;SDS011;4715;51.660;7.082;2023-08-06T09:30:47;2.00;;;1.90;;
5085;SDS011;4715;51.660;7.082;2023-08-06T09:33:09;2.40;;;2.20;;
5085;SDS011;4715;51.660;7.082;2023-08-06T09:35:31;2.10;;;2.00;;
5085;SDS011;4715;51.660;7.082;2023-08-06T09:37:53;2.57;;;2.37;;
5085;SDS011;4715;51.660;7.082;2023-08-06T09:40:26;2.20;;;2.10;;
5085;SDS011;4715;51.660;7.082;2023-08-06T09:42:48;2.03;;;1.93;;
5085;SDS011;4715;51.660;7.082;2023-08-06T09:45:11;2.10;;;2.00;;
5085;SDS011;4715;51.660;7.082;2023-08-06T09:47:36;2.50;;;2.40;;
5085;SDS011;4715;51.660;7.082;2023-08-06T09:49:58;2.40;;;2.30;;
5085;SDS011;4715;51.660;7.082;2023-08-06T09:52:20;2.10;;;2.00;;
5085;SDS011;4715;51.660;7.082;2023-08-06T09:54:43;2.30;;;2.20;;
5085;SDS011;4715;51.660;7.082;2023-08-06T09:57:07;2.10;;;2.00;;
5085;SDS011;4715;51.660;7.082;2023-08-06T09:59:29;2.63;;;2.50;;
5085;SDS011;4715;51.660;7.082;2023-08-06T10:01:53;2.20;;;2.10;;
5085;SDS011;4715;51.660;7.082;2023-08-06T10:04:16;2.50;;;2.30;;
5085;SDS011;4715;51.660;7.082;2023-08-06T10:06:38;2.13;;;2.03;;
5085;SDS011;4715;51.660;7.082;2023-08-06T10:09:00;2.40;;;2.30;;
5085;SDS011;4715;51.660;7.082;2023-08-06T10:11:23;3.40;;;3.20;;
5085;SDS011;4715;51.660;7.082;2023-08-06T10:13:47;2.23;;;2.13;;
5085;SDS011;4715;51.660;7.082;2023-08-06T10:16:10;2.17;;;2.07;;
5085;SDS011;4715;51.660;7.082;2023-08-06T10:18:34;2.97;;;2.67;;
5085;SDS011;4715;51.660;7.082;2023-08-06T10:20:59;2.70;;;2.50;;
5085;SDS011;4715;51.660;7.082;2023-08-06T10:23:22;2.50;;;2.40;;
5085;SDS011;4715;51.660;7.082;2023-08-06T10:25:56;2.40;;;2.30;;
5085;SDS011;4715;51.660;7.082;2023-08-06T10:28:33;2.80;;;2.67;;
5085;SDS011;4715;51.660;7.082;2023-08-06T10:30:57;2.53;;;2.43;;
5085;SDS011;4715;51.660;7.082;2023-08-06T10:33:19;3.13;;;3.03;;
5085;SDS011;4715;51.660;7.082;2023-08-06T10:35:43;2.73;;;2.63;;
5085;SDS011;4715;51.660;7.082;2023-08-06T10:38:09;2.83;;;2.60;;
5085;SDS011;4715;51.660;7.082;2023-08-06T10:40:32;2.27;;;2.17;;
5085;SDS011;4715;51.660;7.082;2023-08-06T10:42:55;2.17;;;2.07;;
5085;SDS011;4715;51.660;7.082;2023-08-06T10:45:19;2.33;;;2.23;;
5085;SDS011;4715;51.660;7.082;2023-08-06T10:47:45;2.40;;;2.30;;
5085;SDS011;4715;51.660;7.082;2023-08-06T10:50:07;2.37;;;2.27;;
5085;SDS011;4715;51.660;7.082;2023-08-06T10:52:33;2.50;;;2.40;;
5085;SDS011;4715;51.660;7.082;2023-08-06T10:57:27;2.27;;;2.17;;
5085;SDS011;4715;51.660;7.082;2023-08-06T10:59:48;2.10;;;2.00;;
5085;SDS011;4715;51.660;7.082;2023-08-06T11:02:11;2.10;;;2.00;;
5085;SDS011;4715;51.660;7.082;2023-08-06T11:04:34;1.77;;;1.70;;
5085;SDS011;4715;51.660;7.082;2023-08-06T11:07:00;1.87;;;1.77;;
5085;SDS011;4715;51.660;7.082;2023-08-06T11:09:22;2.57;;;2.47;;
5085;SDS011;4715;51.660;7.082;2023-08-06T11:11:44;2.00;;;1.90;;
5085;SDS011;4715;51.660;7.082;2023-08-06T11:14:06;2.20;;;2.00;;
5085;SDS011;4715;51.660;7.082;2023-08-06T11:16:35;2.20;;;2.10;;
5085;SDS011;4715;51.660;7.082;2023-08-06T11:18:57;2.30;;;2.20;;
5085;SDS011;4715;51.660;7.082;2023-08-06T11:21:21;2.43;;;2.33;;
5085;SDS011;4715;51.660;7.082;2023-08-06T11:23:44;2.77;;;2.67;;
5085;SDS011;4715;51.660;7.082;2023-08-06T11:26:06;2.47;;;2.37;;
5085;SDS011;4715;51.660;7.082;2023-08-06T11:28:28;2.80;;;2.70;;
5085;SDS011;4715;51.660;7.082;2023-08-06T11:30:50;2.30;;;2.20;;
5085;SDS011;4715;51.660;7.082;2023-08-06T11:33:12;2.87;;;2.77;;
5085;SDS011;4715;51.660;7.082;2023-08-06T11:35:34;3.47;;;3.20;;
5085;SDS011;4715;51.660;7.082;2023-08-06T11:37:58;2.90;;;2.80;;
5085;SDS011;4715;51.660;7.082;2023-08-06T11:40:21;3.03;;;2.93;;
5085;SDS011;4715;51.660;7.082;2023-08-06T11:42:46;3.00;;;2.83;;
5085;SDS011;4715;51.660;7.082;2023-08-06T11:45:08;3.70;;;3.40;;
5085;SDS011;4715;51.660;7.082;2023-08-06T11:47:30;2.77;;;2.67;;
5085;SDS011;4715;51.660;7.082;2023-08-06T11:49:52;2.63;;;2.53;;
5085;SDS011;4715;51.660;7.082;2023-08-06T11:52:15;3.17;;;2.97;;
5085;SDS011;4715;51.660;7.082;2023-08-06T11:55:00;3.20;;;3.10;;
5085;SDS011;4715;51.660;7.082;2023-08-06T11:57:26;2.90;;;2.80;;
5085;SDS011;4715;51.660;7.082;2023-08-06T11:59:53;3.83;;;3.00;;
5085;SDS011;4715;51.660;7.082;2023-08-06T12:02:15;2.80;;;2.70;;
5085;SDS011;4715;51.660;7.082;2023-08-06T12:07:25;3.27;;;3.10;;
5085;SDS011;4715;51.660;7.082;2023-08-06T12:09:49;3.80;;;3.60;;
5085;SDS011;4715;51.660;7.082;2023-08-06T12:12:11;4.03;;;3.83;;
5085;SDS011;4715;51.660;7.082;2023-08-06T12:14:33;4.63;;;4.43;;
5085;SDS011;4715;51.660;7.082;2023-08-06T12:16:57;4.60;;;4.40;;
5085;SDS011;4715;51.660;7.082;2023-08-06T12:19:20;4.40;;;4.10;;
5085;SDS011;4715;51.660;7.082;2023-08-06T12:21:43;4.10;;;3.90;;
5085;SDS011;4715;51.660;7.082;2023-08-06T12:24:05;6.77;;;6.13;;
5085;SDS011;4715;51.660;7.082;2023-08-06T12:26:29;6.03;;;5.60;;
5085;SDS011;4715;51.660;7.082;2023-08-06T12:28:51;5.30;;;4.90;;
5085;SDS011;4715;51.660;7.082;2023-08-06T12:31:16;6.07;;;4.77;;
5085;SDS011;4715;51.660;7.082;2023-08-06T12:33:38;3.83;;;3.63;;
5085;SDS011;4715;51.660;7.082;2023-08-06T12:36:00;3.17;;;2.97;;
5085;SDS011;4715;51.660;7.082;2023-08-06T12:38:21;2.33;;;2.13;;
5085;SDS011;4715;51.660;7.082;2023-08-06T12:40:43;1.90;;;1.80;;
5085;SDS011;4715;51.660;7.082;2023-08-06T12:43:06;1.60;;;1.50;;
5085;SDS011;4715;51.660;7.082;2023-08-06T12:45:29;1.07;;;1.07;;
5085;SDS011;4715;51.660;7.082;2023-08-06T12:47:53;1.40;;;1.30;;
5085;SDS011;4715;51.660;7.082;2023-08-06T12:50:15;1.20;;;1.20;;
5085;SDS011;4715;51.660;7.082;2023-08-06T12:52:37;1.13;;;1.13;;
5085;SDS011;4715;51.660;7.082;2023-08-06T12:54:59;1.10;;;1.00;;
5085;SDS011;4715;51.660;7.082;2023-08-06T12:57:21;1.37;;;1.27;;
5085;SDS011;4715;51.660;7.082;2023-08-06T12:59:44;1.07;;;0.97;;
5085;SDS011;4715;51.660;7.082;2023-08-06T13:02:06;1.03;;;1.00;;
5085;SDS011;4715;51.660;7.082;2023-08-06T13:04:28;2.00;;;0.90;;
5085;SDS011;4715;51.660;7.082;2023-08-06T13:06:50;0.90;;;0.90;;
5085;SDS011;4715;51.660;7.082;2023-08-06T13:09:12;1.40;;;0.93;;
5085;SDS011;4715;51.660;7.082;2023-08-06T13:11:34;0.73;;;0.73;;
5085;SDS011;4715;51.660;7.082;2023-08-06T13:13:56;0.90;;;0.90;;
5085;SDS011;4715;51.660;7.082;2023-08-06T13:16:22;1.00;;;1.00;;
5085;SDS011;4715;51.660;7.082;2023-08-06T13:18:43;1.00;;;0.93;;
5085;SDS011;4715;51.660;7.082;2023-08-06T13:21:05;0.90;;;0.90;;
5085;SDS011;4715;51.660;7.082;2023-08-06T13:23:27;0.90;;;0.90;;
5085;SDS011;4715;51.660;7.082;2023-08-06T13:25:49;1.00;;;0.90;;
5085;SDS011;4715;51.660;7.082;2023-08-06T13:28:11;0.80;;;0.80;;
5085;SDS011;4715;51.660;7.082;2023-08-06T13:30:34;1.03;;;0.90;;
5085;SDS011;4715;51.660;7.082;2023-08-06T13:33:03;1.57;;;0.93;;
5085;SDS011;4715;51.660;7.082;2023-08-06T13:35:26;1.00;;;0.97;;
5085;SDS011;4715;51.660;7.082;2023-08-06T13:37:48;1.17;;;0.90;;
5085;SDS011;4715;51.660;7.082;2023-08-06T13:40:10;0.97;;;0.97;;
5085;SDS011;4715;51.660;7.082;2023-08-06T13:42:32;0.80;;;0.80;;
5085;SDS011;4715;51.660;7.082;2023-08-06T13:44:56;1.10;;;0.90;;
5085;SDS011;4715;51.660;7.082;2023-08-06T13:47:23;1.00;;;1.00;;
5085;SDS011;4715;51.660;7.082;2023-08-06T13:49:47;0.80;;;0.80;;
5085;SDS011;4715;51.660;7.082;2023-08-06T13:52:09;2.70;;;1.20;;
5085;SDS011;4715;51.660;7.082;2023-08-06T13:54:31;1.10;;;1.00;;
5085;SDS011;4715;51.660;7.082;2023-08-06T13:56:53;1.67;;;1.00;;
5085;SDS011;4715;51.660;7.082;2023-08-06T13:59:15;1.13;;;1.03;;
5085;SDS011;4715;51.660;7.082;2023-08-06T14:01:39;0.90;;;0.90;;
5085;SDS011;4715;51.660;7.082;2023-08-06T14:04:00;1.10;;;1.10;;
5085;SDS011;4715;51.660;7.082;2023-08-06T14:06:24;1.00;;;1.00;;
5085;SDS011;4715;51.660;7.082;2023-08-06T14:08:46;1.17;;;1.07;;
5085;SDS011;4715;51.660;7.082;2023-08-06T14:11:08;1.20;;;0.90;;
5085;SDS011;4715;51.660;7.082;2023-08-06T14:13:30;1.43;;;0.80;;
5085;SDS011;4715;51.660;7.082;2023-08-06T14:15:53;0.90;;;0.90;;
5085;SDS011;4715;51.660;7.082;2023-08-06T14:18:16;0.83;;;0.83;;
5085;SDS011;4715;51.660;7.082;2023-08-06T14:20:38;0.80;;;0.80;;
5085;SDS011;4715;51.660;7.082;2023-08-06T14:23:01;1.30;;;1.10;;
5085;SDS011;4715;51.660;7.082;2023-08-06T14:25:23;1.00;;;1.00;;
5085;SDS011;4715;51.660;7.082;2023-08-06T14:27:45;0.97;;;0.97;;
5085;SDS011;4715;51.660;7.082;2023-08-06T14:30:07;0.80;;;0.80;;
5085;SDS011;4715;51.660;7.082;2023-08-06T14:32:29;1.20;;;1.10;;
5085;SDS011;4715;51.660;7.082;2023-08-06T14:34:51;1.97;;;1.00;;
5085;SDS011;4715;51.660;7.082;2023-08-06T14:37:13;1.10;;;1.10;;
5085;SDS011;4715;51.660;7.082;2023-08-06T14:39:37;2.10;;;1.20;;
5085;SDS011;4715;51.660;7.082;2023-08-06T14:41:59;1.10;;;1.10;;
5085;SDS011;4715;51.660;7.082;2023-08-06T14:44:22;1.00;;;1.00;;
5085;SDS011;4715;51.660;7.082;2023-08-06T14:46:44;1.50;;;1.40;;
5085;SDS011;4715;51.660;7.082;2023-08-06T14:49:06;1.17;;;1.17;;
5085;SDS011;4715;51.660;7.082;2023-08-06T14:51:28;1.40;;;1.30;;
5085;SDS011;4715;51.660;7.082;2023-08-06T14:53:49;1.27;;;1.27;;
5085;SDS011;4715;51.660;7.082;2023-08-06T14:56:13;0.97;;;0.97;;